sensor_id;sensor_type;location;lat;lon;timestamp;pressure;altitude;pressure_sealevel;temperature;humidity
84859;BME280;75115;42.984;23.244;2024-03-23T00:55:55;95421.03;;;-0.61;67.75
84859;BME280;75115;42.984;23.244;2024-03-23T00:58:20;95421.03;;;-0.61;68.33
84859;BME280;75115;42.984;23.244;2024-03-23T01:00:46;95414.50;;;-0.65;68.30
84859;BME280;75115;42.984;23.244;2024-03-23T01:03:11;95417.78;;;-0.63;67.64
84859;BME280;75115;42.984;23.244;2024-03-23T01:05:36;95415.13;;;-0.61;68.12
84859;BME280;75115;42.984;23.244;2024-03-23T01:08:02;95415.31;;;-0.64;67.95
84859;BME280;75115;42.984;23.244;2024-03-23T01:10:27;95413.03;;;-0.82;68.53
84859;BME280;75115;42.984;23.244;2024-03-23T01:12:53;95411.81;;;-0.89;69.02
84859;BME280;75115;42.984;23.244;2024-03-23T01:15:18;95411.41;;;-0.83;69.84
84859;BME280;75115;42.984;23.244;2024-03-23T01:17:43;95410.09;;;-0.88;69.64
84859;BME280;75115;42.984;23.244;2024-03-23T01:20:09;95409.88;;;-0.85;69.16
84859;BME280;75115;42.984;23.244;2024-03-23T01:22:34;95412.75;;;-0.77;69.28
84859;BME280;75115;42.984;23.244;2024-03-23T01:25:00;95409.69;;;-0.82;69.23
84859;BME280;75115;42.984;23.244;2024-03-23T01:27:25;95405.69;;;-0.86;68.73
84859;BME280;75115;42.984;23.244;2024-03-23T01:29:51;95403.28;;;-0.88;69.46
84859;BME280;75115;42.984;23.244;2024-03-23T01:32:18;95404.28;;;-0.90;69.56
84859;BME280;75115;42.984;23.244;2024-03-23T01:34:44;95401.41;;;-0.98;68.69
84859;BME280;75115;42.984;23.244;2024-03-23T01:37:09;95405.88;;;-1.02;69.05
84859;BME280;75115;42.984;23.244;2024-03-23T01:39:35;95395.16;;;-1.07;69.44
84859;BME280;75115;42.984;23.244;2024-03-23T01:42:00;95403.53;;;-1.05;69.04
84859;BME280;75115;42.984;23.244;2024-03-23T01:44:25;95399.44;;;-1.08;69.23
84859;BME280;75115;42.984;23.244;2024-03-23T01:46:51;95404.34;;;-1.05;70.12
84859;BME280;75115;42.984;23.244;2024-03-23T01:49:17;95402.31;;;-0.99;69.87
84859;BME280;75115;42.984;23.244;2024-03-23T01:51:42;95398.97;;;-1.00;68.64
84859;BME280;75115;42.984;23.244;2024-03-23T01:54:09;95403.31;;;-1.02;68.85
84859;BME280;75115;42.984;23.244;2024-03-23T01:56:34;95396.75;;;-1.19;70.00
84859;BME280;75115;42.984;23.244;2024-03-23T01:59:06;95395.88;;;-1.18;70.28
84859;BME280;75115;42.984;23.244;2024-03-23T02:01:32;95396.75;;;-1.19;69.97
84859;BME280;75115;42.984;23.244;2024-03-23T02:03:58;95400.13;;;-1.18;70.19
84859;BME280;75115;42.984;23.244;2024-03-23T02:06:24;95394.31;;;-1.20;69.73
84859;BME280;75115;42.984;23.244;2024-03-23T02:08:50;95391.03;;;-1.22;70.61
84859;BME280;75115;42.984;23.244;2024-03-23T02:11:15;95392.16;;;-1.27;70.33
84859;BME280;75115;42.984;23.244;2024-03-23T02:13:40;95402.44;;;-1.28;69.60
84859;BME280;75115;42.984;23.244;2024-03-23T02:16:06;95396.13;;;-1.22;69.47
84859;BME280;75115;42.984;23.244;2024-03-23T02:18:32;95402.13;;;-1.23;70.24
84859;BME280;75115;42.984;23.244;2024-03-23T02:20:57;95393.81;;;-1.26;70.73
84859;BME280;75115;42.984;23.244;2024-03-23T02:23:23;95407.97;;;-1.21;70.94
84859;BME280;75115;42.984;23.244;2024-03-23T02:25:49;95405.59;;;-1.24;70.34
84859;BME280;75115;42.984;23.244;2024-03-23T02:28:15;95401.50;;;-1.27;69.47
84859;BME280;75115;42.984;23.244;2024-03-23T02:30:40;95394.47;;;-1.36;70.40
84859;BME280;75115;42.984;23.244;2024-03-23T02:33:06;95401.56;;;-1.41;70.02
84859;BME280;75115;42.984;23.244;2024-03-23T02:35:31;95402.28;;;-1.39;69.45
84859;BME280;75115;42.984;23.244;2024-03-23T02:37:57;95401.19;;;-1.35;70.62
84859;BME280;75115;42.984;23.244;2024-03-23T02:40:23;95400.38;;;-1.36;70.68
84859;BME280;75115;42.984;23.244;2024-03-23T02:42:48;95390.66;;;-1.43;70.95
84859;BME280;75115;42.984;23.244;2024-03-23T02:45:14;95402.38;;;-1.41;70.36
84859;BME280;75115;42.984;23.244;2024-03-23T02:47:39;95398.00;;;-1.52;70.01
84859;BME280;75115;42.984;23.244;2024-03-23T02:50:05;95387.06;;;-1.54;70.66
84859;BME280;75115;42.984;23.244;2024-03-23T02:52:31;95395.97;;;-1.46;69.76
84859;BME280;75115;42.984;23.244;2024-03-23T02:54:56;95393.50;;;-1.48;69.87
84859;BME280;75115;42.984;23.244;2024-03-23T02:57:23;95391.06;;;-1.49;70.12
84859;BME280;75115;42.984;23.244;2024-03-23T02:59:48;95391.69;;;-1.46;70.17
84859;BME280;75115;42.984;23.244;2024-03-23T03:02:14;95389.78;;;-1.42;70.65
84859;BME280;75115;42.984;23.244;2024-03-23T03:04:40;95378.22;;;-1.48;70.68
84859;BME280;75115;42.984;23.244;2024-03-23T03:07:05;95393.50;;;-1.48;71.12
84859;BME280;75115;42.984;23.244;2024-03-23T03:09:31;95394.59;;;-1.52;70.56
84859;BME280;75115;42.984;23.244;2024-03-23T03:11:56;95399.78;;;-1.54;69.65
84859;BME280;75115;42.984;23.244;2024-03-23T03:14:22;95399.59;;;-1.51;70.68
84859;BME280;75115;42.984;23.244;2024-03-23T03:16:47;95399.59;;;-1.51;70.84
84859;BME280;75115;42.984;23.244;2024-03-23T03:19:13;95386.16;;;-1.53;70.63
84859;BME280;75115;42.984;23.244;2024-03-23T03:21:38;95391.53;;;-1.57;70.87
84859;BME280;75115;42.984;23.244;2024-03-23T03:24:17;95400.38;;;-1.63;70.52
84859;BME280;75115;42.984;23.244;2024-03-23T03:26:42;95401.47;;;-1.67;69.69
84859;BME280;75115;42.984;23.244;2024-03-23T03:29:08;95402.47;;;-1.69;69.80
84859;BME280;75115;42.984;23.244;2024-03-23T03:31:33;95402.56;;;-1.71;70.47
84859;BME280;75115;42.984;23.244;2024-03-23T03:33:59;95398.81;;;-1.65;71.26
84859;BME280;75115;42.984;23.244;2024-03-23T03:36:24;95398.09;;;-1.67;71.40
84859;BME280;75115;42.984;23.244;2024-03-23T03:38:49;95402.38;;;-1.68;71.16
84859;BME280;75115;42.984;23.244;2024-03-23T03:41:15;95405.00;;;-1.69;70.41
84859;BME280;75115;42.984;23.244;2024-03-23T03:43:41;95394.59;;;-1.79;70.65
84859;BME280;75115;42.984;23.244;2024-03-23T03:46:06;95402.66;;;-1.72;71.15
84859;BME280;75115;42.984;23.244;2024-03-23T03:48:33;95403.66;;;-1.75;70.47
84859;BME280;75115;42.984;23.244;2024-03-23T03:50:58;95404.38;;;-1.73;70.53
84859;BME280;75115;42.984;23.244;2024-03-23T03:53:24;95402.03;;;-1.76;70.50
84859;BME280;75115;42.984;23.244;2024-03-23T03:55:49;95408.75;;;-1.75;71.51
84859;BME280;75115;42.984;23.244;2024-03-23T03:58:14;95408.75;;;-1.75;70.68
84859;BME280;75115;42.984;23.244;2024-03-23T04:00:40;95405.66;;;-1.80;71.07
84859;BME280;75115;42.984;23.244;2024-03-23T04:03:06;95410.13;;;-1.84;71.06
84859;BME280;75115;42.984;23.244;2024-03-23T04:05:31;95408.38;;;-1.83;71.23
84859;BME280;75115;42.984;23.244;2024-03-23T04:07:56;95408.56;;;-1.86;71.28
84859;BME280;75115;42.984;23.244;2024-03-23T04:10:22;95407.84;;;-1.88;71.70
84859;BME280;75115;42.984;23.244;2024-03-23T04:12:47;95409.94;;;-1.95;71.53
84859;BME280;75115;42.984;23.244;2024-03-23T04:15:13;95412.41;;;-1.93;71.75
84859;BME280;75115;42.984;23.244;2024-03-23T04:17:39;95412.34;;;-2.06;72.02
84859;BME280;75115;42.984;23.244;2024-03-23T04:20:05;95409.22;;;-1.97;71.78
84859;BME280;75115;42.984;23.244;2024-03-23T04:22:34;95411.69;;;-1.95;71.68
84859;BME280;75115;42.984;23.244;2024-03-23T04:24:59;95415.13;;;-1.96;72.14
84859;BME280;75115;42.984;23.244;2024-03-23T04:27:25;95412.69;;;-1.98;71.72
84859;BME280;75115;42.984;23.244;2024-03-23T04:29:51;95413.50;;;-1.97;71.92
84859;BME280;75115;42.984;23.244;2024-03-23T04:32:18;95409.31;;;-1.98;72.41
84859;BME280;75115;42.984;23.244;2024-03-23T04:34:44;95415.84;;;-1.94;72.17
84859;BME280;75115;42.984;23.244;2024-03-23T04:37:09;95416.66;;;-1.94;71.39
84859;BME280;75115;42.984;23.244;2024-03-23T04:39:38;95409.94;;;-1.95;72.12
84859;BME280;75115;42.984;23.244;2024-03-23T04:42:04;95416.41;;;-1.89;71.85
84859;BME280;75115;42.984;23.244;2024-03-23T04:44:30;95417.13;;;-1.87;71.62
84859;BME280;75115;42.984;23.244;2024-03-23T04:46:57;95417.47;;;-1.79;70.78
84859;BME280;75115;42.984;23.244;2024-03-23T04:49:22;95414.22;;;-1.81;71.22
84859;BME280;75115;42.984;23.244;2024-03-23T04:51:48;95427.81;;;-1.82;71.63
84859;BME280;75115;42.984;23.244;2024-03-23T04:54:13;95418.94;;;-1.89;72.32
84859;BME280;75115;42.984;23.244;2024-03-23T04:56:38;95426.25;;;-1.70;71.77
84859;BME280;75115;42.984;23.244;2024-03-23T04:59:04;95424.88;;;-1.62;71.31
84859;BME280;75115;42.984;23.244;2024-03-23T05:01:31;95415.78;;;-1.52;71.23
84859;BME280;75115;42.984;23.244;2024-03-23T05:03:57;95421.34;;;-1.32;70.82
84859;BME280;75115;42.984;23.244;2024-03-23T05:06:23;95417.38;;;-1.09;69.84
84859;BME280;75115;42.984;23.244;2024-03-23T05:08:51;95421.09;;;-0.88;69.57
84859;BME280;75115;42.984;23.244;2024-03-23T05:11:17;95417.53;;;-0.72;68.84
84859;BME280;75115;42.984;23.244;2024-03-23T05:13:43;95420.84;;;-0.45;68.21
84859;BME280;75115;42.984;23.244;2024-03-23T05:16:08;95418.69;;;0.00;67.79
84859;BME280;75115;42.984;23.244;2024-03-23T05:18:34;95416.91;;;0.87;65.11
84859;BME280;75115;42.984;23.244;2024-03-23T05:21:00;95413.69;;;1.78;62.21
84859;BME280;75115;42.984;23.244;2024-03-23T05:23:26;95401.47;;;2.37;59.35
84859;BME280;75115;42.984;23.244;2024-03-23T05:25:51;95407.22;;;2.73;58.40
84859;BME280;75115;42.984;23.244;2024-03-23T05:28:18;95406.75;;;3.11;57.60
84859;BME280;75115;42.984;23.244;2024-03-23T05:30:43;95400.34;;;3.80;55.96
84859;BME280;75115;42.984;23.244;2024-03-23T05:33:09;95405.31;;;5.31;51.79
84859;BME280;75115;42.984;23.244;2024-03-23T05:35:34;95402.25;;;7.66;46.25
84859;BME280;75115;42.984;23.244;2024-03-23T05:38:00;95395.13;;;10.19;40.46
84859;BME280;75115;42.984;23.244;2024-03-23T05:40:26;95390.16;;;12.62;35.35
84859;BME280;75115;42.984;23.244;2024-03-23T05:42:51;95385.69;;;14.27;31.25
84859;BME280;75115;42.984;23.244;2024-03-23T05:45:21;95388.63;;;15.88;26.58
84859;BME280;75115;42.984;23.244;2024-03-23T05:47:48;95386.56;;;17.71;25.35
84859;BME280;75115;42.984;23.244;2024-03-23T05:50:13;95379.03;;;19.35;22.73
84859;BME280;75115;42.984;23.244;2024-03-23T05:52:39;95382.78;;;20.98;20.86
84859;BME280;75115;42.984;23.244;2024-03-23T05:55:05;95373.00;;;22.35;19.34
84859;BME280;75115;42.984;23.244;2024-03-23T05:57:31;95371.63;;;23.64;17.39
84859;BME280;75115;42.984;23.244;2024-03-23T05:59:57;95374.81;;;24.73;14.96
84859;BME280;75115;42.984;23.244;2024-03-23T06:02:23;95365.28;;;25.50;15.26
84859;BME280;75115;42.984;23.244;2024-03-23T06:04:48;95367.16;;;26.21;14.24
84859;BME280;75115;42.984;23.244;2024-03-23T06:07:14;95359.72;;;26.48;13.21
84859;BME280;75115;42.984;23.244;2024-03-23T06:09:40;95363.25;;;27.03;13.02
84859;BME280;75115;42.984;23.244;2024-03-23T06:12:06;95358.66;;;27.64;12.63
84859;BME280;75115;42.984;23.244;2024-03-23T06:14:32;95357.16;;;28.21;12.49
84859;BME280;75115;42.984;23.244;2024-03-23T06:16:58;95356.03;;;28.56;12.29
84859;BME280;75115;42.984;23.244;2024-03-23T06:19:24;95346.22;;;28.22;11.29
84859;BME280;75115;42.984;23.244;2024-03-23T06:21:52;95345.66;;;29.02;11.48
84859;BME280;75115;42.984;23.244;2024-03-23T06:24:17;95350.91;;;30.02;11.66
84859;BME280;75115;42.984;23.244;2024-03-23T06:26:43;95344.06;;;30.15;10.93
84859;BME280;75115;42.984;23.244;2024-03-23T06:29:08;95347.16;;;30.36;11.13
84859;BME280;75115;42.984;23.244;2024-03-23T06:31:34;95347.81;;;30.88;10.38
84859;BME280;75115;42.984;23.244;2024-03-23T06:33:59;95335.38;;;31.05;9.95
84859;BME280;75115;42.984;23.244;2024-03-23T06:36:26;95336.91;;;30.98;10.19
84859;BME280;75115;42.984;23.244;2024-03-23T06:38:52;95335.47;;;30.31;10.01
84859;BME280;75115;42.984;23.244;2024-03-23T06:41:17;95333.88;;;30.30;10.01
84859;BME280;75115;42.984;23.244;2024-03-23T06:43:43;95335.19;;;30.47;10.46
84859;BME280;75115;42.984;23.244;2024-03-23T06:46:08;95321.06;;;31.24;9.33
84859;BME280;75115;42.984;23.244;2024-03-23T06:48:34;95325.84;;;30.72;9.41
84859;BME280;75115;42.984;23.244;2024-03-23T06:50:59;95321.59;;;30.71;10.56
84859;BME280;75115;42.984;23.244;2024-03-23T06:53:24;95321.50;;;31.03;9.75
84859;BME280;75115;42.984;23.244;2024-03-23T06:55:51;95317.53;;;31.01;10.00
84859;BME280;75115;42.984;23.244;2024-03-23T06:58:18;95316.47;;;31.38;9.78
84859;BME280;75115;42.984;23.244;2024-03-23T07:00:44;95318.03;;;31.75;8.98
84859;BME280;75115;42.984;23.244;2024-03-23T07:03:09;95310.06;;;32.38;9.13
84859;BME280;75115;42.984;23.244;2024-03-23T07:05:34;95308.97;;;32.78;8.09
84859;BME280;75115;42.984;23.244;2024-03-23T07:08:00;95306.84;;;30.60;9.75
84859;BME280;75115;42.984;23.244;2024-03-23T07:10:25;95306.16;;;30.81;9.79
84859;BME280;75115;42.984;23.244;2024-03-23T07:12:51;95301.88;;;30.53;9.44
84859;BME280;75115;42.984;23.244;2024-03-23T07:15:16;95294.25;;;31.38;9.77
84859;BME280;75115;42.984;23.244;2024-03-23T07:17:41;95291.19;;;32.20;8.80
84859;BME280;75115;42.984;23.244;2024-03-23T07:20:07;95292.72;;;32.84;8.54
84859;BME280;75115;42.984;23.244;2024-03-23T07:22:35;95286.75;;;32.47;9.54
84859;BME280;75115;42.984;23.244;2024-03-23T07:25:01;95276.03;;;32.16;8.71
84859;BME280;75115;42.984;23.244;2024-03-23T07:27:27;95283.63;;;32.22;9.12
84859;BME280;75115;42.984;23.244;2024-03-23T07:29:52;95283.72;;;31.64;9.54
84859;BME280;75115;42.984;23.244;2024-03-23T07:32:18;95284.69;;;29.28;11.28
84859;BME280;75115;42.984;23.244;2024-03-23T07:34:43;95275.03;;;29.84;11.20
84859;BME280;75115;42.984;23.244;2024-03-23T07:37:10;95276.13;;;28.89;11.79
84859;BME280;75115;42.984;23.244;2024-03-23T07:39:35;95275.19;;;28.79;12.26
84859;BME280;75115;42.984;23.244;2024-03-23T07:42:00;95267.78;;;28.28;12.26
84859;BME280;75115;42.984;23.244;2024-03-23T07:44:26;95270.03;;;27.19;13.75
84859;BME280;75115;42.984;23.244;2024-03-23T07:46:51;95261.28;;;27.08;13.79
84859;BME280;75115;42.984;23.244;2024-03-23T07:49:17;95262.38;;;26.52;15.27
84859;BME280;75115;42.984;23.244;2024-03-23T07:51:43;95258.00;;;25.86;15.28
84859;BME280;75115;42.984;23.244;2024-03-23T07:54:10;95254.38;;;24.69;17.58
84859;BME280;75115;42.984;23.244;2024-03-23T07:56:35;95257.69;;;23.22;18.71
84859;BME280;75115;42.984;23.244;2024-03-23T07:59:00;95248.28;;;21.94;21.12
84859;BME280;75115;42.984;23.244;2024-03-23T08:01:28;95256.81;;;21.46;21.68
84859;BME280;75115;42.984;23.244;2024-03-23T08:03:54;95253.66;;;19.82;23.91
84859;BME280;75115;42.984;23.244;2024-03-23T08:06:20;95242.66;;;19.38;24.57
84859;BME280;75115;42.984;23.244;2024-03-23T08:08:47;95247.13;;;18.96;25.55
84859;BME280;75115;42.984;23.244;2024-03-23T08:11:14;95248.94;;;18.84;26.95
84859;BME280;75115;42.984;23.244;2024-03-23T08:13:41;95243.75;;;18.77;26.95
84859;BME280;75115;42.984;23.244;2024-03-23T08:16:06;95246.00;;;17.88;27.56
84859;BME280;75115;42.984;23.244;2024-03-23T08:18:33;95243.44;;;17.57;26.98
84859;BME280;75115;42.984;23.244;2024-03-23T08:21:04;95247.31;;;17.04;28.78
84859;BME280;75115;42.984;23.244;2024-03-23T08:23:32;95242.31;;;16.96;28.39
84859;BME280;75115;42.984;23.244;2024-03-23T08:26:00;95238.00;;;16.77;28.49
84859;BME280;75115;42.984;23.244;2024-03-23T08:28:26;95231.38;;;16.74;28.69
84859;BME280;75115;42.984;23.244;2024-03-23T08:30:53;95230.34;;;15.52;30.15
84859;BME280;75115;42.984;23.244;2024-03-23T08:33:18;95236.19;;;14.94;31.32
84859;BME280;75115;42.984;23.244;2024-03-23T08:35:56;95229.91;;;14.56;33.00
84859;BME280;75115;42.984;23.244;2024-03-23T08:38:25;95227.72;;;14.72;33.27
84859;BME280;75115;42.984;23.244;2024-03-23T08:41:05;95227.94;;;14.78;32.85
84859;BME280;75115;42.984;23.244;2024-03-23T08:43:32;95219.50;;;14.62;32.34
84859;BME280;75115;42.984;23.244;2024-03-23T08:48:44;95214.19;;;14.42;32.31
84859;BME280;75115;42.984;23.244;2024-03-23T08:51:11;95202.28;;;14.20;32.78
84859;BME280;75115;42.984;23.244;2024-03-23T08:53:38;95201.16;;;13.88;34.15
84859;BME280;75115;42.984;23.244;2024-03-23T08:56:04;95186.19;;;13.62;33.92
84859;BME280;75115;42.984;23.244;2024-03-23T08:58:31;95185.09;;;13.84;32.93
84859;BME280;75115;42.984;23.244;2024-03-23T09:01:09;95172.41;;;13.75;32.62
84859;BME280;75115;42.984;23.244;2024-03-23T09:03:36;95174.81;;;13.76;33.08
84859;BME280;75115;42.984;23.244;2024-03-23T09:06:09;95165.31;;;14.03;31.60
84859;BME280;75115;42.984;23.244;2024-03-23T09:08:35;95160.91;;;14.10;32.32
84859;BME280;75115;42.984;23.244;2024-03-23T09:11:12;95158.47;;;14.02;31.78
84859;BME280;75115;42.984;23.244;2024-03-23T09:13:38;95155.50;;;14.18;32.30
84859;BME280;75115;42.984;23.244;2024-03-23T09:16:05;95154.50;;;14.13;30.42
84859;BME280;75115;42.984;23.244;2024-03-23T09:18:35;95144.66;;;14.08;27.41
84859;BME280;75115;42.984;23.244;2024-03-23T09:21:01;95136.81;;;14.02;27.11
84859;BME280;75115;42.984;23.244;2024-03-23T09:23:26;95140.19;;;13.89;28.60
84859;BME280;75115;42.984;23.244;2024-03-23T09:25:52;95133.41;;;14.01;28.41
84859;BME280;75115;42.984;23.244;2024-03-23T09:28:17;95133.78;;;13.91;25.54
84859;BME280;75115;42.984;23.244;2024-03-23T09:30:43;95127.19;;;13.95;27.51
84859;BME280;75115;42.984;23.244;2024-03-23T09:33:12;95135.56;;;13.84;27.56
84859;BME280;75115;42.984;23.244;2024-03-23T09:35:38;95126.69;;;13.72;26.77
84859;BME280;75115;42.984;23.244;2024-03-23T09:38:04;95117.09;;;13.79;29.03
84859;BME280;75115;42.984;23.244;2024-03-23T09:40:30;95129.19;;;14.00;28.48
84859;BME280;75115;42.984;23.244;2024-03-23T09:42:55;95121.00;;;14.03;27.62
84859;BME280;75115;42.984;23.244;2024-03-23T09:45:23;95116.22;;;14.20;26.48
84859;BME280;75115;42.984;23.244;2024-03-23T09:47:51;95121.81;;;14.17;27.06
84859;BME280;75115;42.984;23.244;2024-03-23T09:50:17;95110.72;;;14.02;26.32
84859;BME280;75115;42.984;23.244;2024-03-23T09:52:43;95110.34;;;14.05;28.15
84859;BME280;75115;42.984;23.244;2024-03-23T09:55:10;95106.28;;;13.89;27.15
84859;BME280;75115;42.984;23.244;2024-03-23T09:57:36;95106.06;;;13.90;27.27
84859;BME280;75115;42.984;23.244;2024-03-23T10:00:02;95103.53;;;14.10;29.51
84859;BME280;75115;42.984;23.244;2024-03-23T10:02:29;95104.16;;;14.19;26.84
84859;BME280;75115;42.984;23.244;2024-03-23T10:04:54;95102.38;;;14.33;27.70
84859;BME280;75115;42.984;23.244;2024-03-23T10:07:20;95099.00;;;14.52;26.96
84859;BME280;75115;42.984;23.244;2024-03-23T10:09:49;95096.34;;;14.26;28.26
84859;BME280;75115;42.984;23.244;2024-03-23T10:12:17;95090.06;;;14.07;27.56
84859;BME280;75115;42.984;23.244;2024-03-23T10:14:43;95083.44;;;13.97;27.30
84859;BME280;75115;42.984;23.244;2024-03-23T10:19:46;95085.50;;;14.35;27.01
84859;BME280;75115;42.984;23.244;2024-03-23T10:22:23;95075.72;;;14.51;27.63
84859;BME280;75115;42.984;23.244;2024-03-23T10:24:52;95069.09;;;14.68;27.49
84859;BME280;75115;42.984;23.244;2024-03-23T10:27:19;95067.47;;;14.80;27.64
84859;BME280;75115;42.984;23.244;2024-03-23T10:29:48;95062.84;;;14.89;26.94
84859;BME280;75115;42.984;23.244;2024-03-23T10:32:15;95053.59;;;14.93;26.78
84859;BME280;75115;42.984;23.244;2024-03-23T10:34:41;95044.53;;;14.95;26.54
84859;BME280;75115;42.984;23.244;2024-03-23T10:37:07;95040.38;;;14.88;27.04
84859;BME280;75115;42.984;23.244;2024-03-23T10:39:37;95036.53;;;14.97;27.41
84859;BME280;75115;42.984;23.244;2024-03-23T10:42:07;95029.84;;;15.08;28.22
84859;BME280;75115;42.984;23.244;2024-03-23T10:44:33;95023.25;;;14.98;27.04
84859;BME280;75115;42.984;23.244;2024-03-23T10:47:02;95015.06;;;14.82;27.77
84859;BME280;75115;42.984;23.244;2024-03-23T10:49:35;95018.50;;;14.76;27.79
84859;BME280;75115;42.984;23.244;2024-03-23T10:52:04;95014.69;;;14.71;29.88
84859;BME280;75115;42.984;23.244;2024-03-23T10:54:31;95003.84;;;14.61;28.10
84859;BME280;75115;42.984;23.244;2024-03-23T10:57:11;95008.66;;;14.71;28.26
84859;BME280;75115;42.984;23.244;2024-03-23T10:59:38;95004.63;;;14.82;27.94
84859;BME280;75115;42.984;23.244;2024-03-23T11:02:04;94996.44;;;14.58;28.25
84859;BME280;75115;42.984;23.244;2024-03-23T11:04:34;94982.94;;;14.48;28.13
84859;BME280;75115;42.984;23.244;2024-03-23T11:07:00;94984.78;;;14.67;29.11
84859;BME280;75115;42.984;23.244;2024-03-23T11:09:46;94971.69;;;14.74;29.03
84859;BME280;75115;42.984;23.244;2024-03-23T11:15:01;94962.84;;;14.82;28.23
84859;BME280;75115;42.984;23.244;2024-03-23T11:17:30;94961.81;;;14.89;29.39
84859;BME280;75115;42.984;23.244;2024-03-23T11:20:05;94953.00;;;14.84;27.04
84859;BME280;75115;42.984;23.244;2024-03-23T11:22:44;94956.00;;;14.87;28.07
84859;BME280;75115;42.984;23.244;2024-03-23T11:25:22;94957.56;;;15.02;28.06
84859;BME280;75115;42.984;23.244;2024-03-23T11:28:10;94948.50;;;15.04;28.53
84859;BME280;75115;42.984;23.244;2024-03-23T11:30:37;94940.66;;;15.11;27.46
84859;BME280;75115;42.984;23.244;2024-03-23T11:33:05;94944.06;;;15.11;27.82
84859;BME280;75115;42.984;23.244;2024-03-23T11:35:32;94939.22;;;15.15;28.18
84859;BME280;75115;42.984;23.244;2024-03-23T11:38:13;94928.28;;;15.31;27.63
84859;BME280;75115;42.984;23.244;2024-03-23T11:43:06;94916.91;;;15.12;27.21
84859;BME280;75115;42.984;23.244;2024-03-23T11:45:51;94915.94;;;15.13;26.57
84859;BME280;75115;42.984;23.244;2024-03-23T11:48:19;94908.59;;;15.29;28.17
84859;BME280;75115;42.984;23.244;2024-03-23T11:50:56;94912.38;;;15.39;27.00
84859;BME280;75115;42.984;23.244;2024-03-23T11:53:23;94903.50;;;15.47;27.22
84859;BME280;75115;42.984;23.244;2024-03-23T11:55:54;94897.41;;;15.53;27.23
84859;BME280;75115;42.984;23.244;2024-03-23T11:58:21;94877.50;;;15.52;27.31
84859;BME280;75115;42.984;23.244;2024-03-23T12:00:58;94884.91;;;15.30;26.80
84859;BME280;75115;42.984;23.244;2024-03-23T12:03:25;94893.41;;;15.19;26.76
84859;BME280;75115;42.984;23.244;2024-03-23T12:05:59;94877.94;;;15.17;26.31
84859;BME280;75115;42.984;23.244;2024-03-23T12:11:05;94862.50;;;15.09;26.95
84859;BME280;75115;42.984;23.244;2024-03-23T12:13:31;94864.44;;;15.20;27.45
84859;BME280;75115;42.984;23.244;2024-03-23T12:16:12;94858.88;;;15.10;26.96
84859;BME280;75115;42.984;23.244;2024-03-23T12:18:40;94846.69;;;15.29;27.72
84859;BME280;75115;42.984;23.244;2024-03-23T12:21:06;94844.19;;;15.47;26.61
84859;BME280;75115;42.984;23.244;2024-03-23T12:23:32;94843.16;;;15.48;26.86
84859;BME280;75115;42.984;23.244;2024-03-23T12:25:57;94834.31;;;15.50;25.94
84859;BME280;75115;42.984;23.244;2024-03-23T12:28:23;94833.84;;;15.59;26.42
84859;BME280;75115;42.984;23.244;2024-03-23T12:30:48;94827.22;;;15.57;27.19
84859;BME280;75115;42.984;23.244;2024-03-23T12:33:14;94828.41;;;15.61;26.61
84859;BME280;75115;42.984;23.244;2024-03-23T12:35:39;94828.53;;;15.73;27.96
84859;BME280;75115;42.984;23.244;2024-03-23T12:38:04;94822.25;;;15.80;26.32
84859;BME280;75115;42.984;23.244;2024-03-23T12:40:30;94817.16;;;15.85;26.58
84859;BME280;75115;42.984;23.244;2024-03-23T12:42:55;94806.91;;;15.84;26.21
84859;BME280;75115;42.984;23.244;2024-03-23T12:45:21;94814.91;;;15.89;26.44
84859;BME280;75115;42.984;23.244;2024-03-23T12:47:47;94813.78;;;15.78;26.10
84859;BME280;75115;42.984;23.244;2024-03-23T12:50:12;94796.28;;;15.79;25.03
84859;BME280;75115;42.984;23.244;2024-03-23T12:52:38;94800.16;;;15.94;25.21
84859;BME280;75115;42.984;23.244;2024-03-23T12:55:04;94795.78;;;15.88;24.38
84859;BME280;75115;42.984;23.244;2024-03-23T12:57:32;94792.56;;;15.93;25.22
84859;BME280;75115;42.984;23.244;2024-03-23T12:59:58;94785.66;;;15.99;25.13
84859;BME280;75115;42.984;23.244;2024-03-23T13:02:23;94780.63;;;16.15;24.20
84859;BME280;75115;42.984;23.244;2024-03-23T13:04:50;94784.84;;;16.16;24.26
84859;BME280;75115;42.984;23.244;2024-03-23T13:07:17;94777.00;;;16.16;24.33
84859;BME280;75115;42.984;23.244;2024-03-23T13:09:43;94769.44;;;16.08;24.03
84859;BME280;75115;42.984;23.244;2024-03-23T13:12:08;94763.94;;;15.98;25.40
84859;BME280;75115;42.984;23.244;2024-03-23T13:14:34;94765.38;;;15.94;25.62
84859;BME280;75115;42.984;23.244;2024-03-23T13:17:00;94764.50;;;16.00;26.17
84859;BME280;75115;42.984;23.244;2024-03-23T13:19:26;94764.34;;;15.95;25.41
84859;BME280;75115;42.984;23.244;2024-03-23T13:21:54;94769.28;;;16.03;25.15
84859;BME280;75115;42.984;23.244;2024-03-23T13:24:23;94757.53;;;15.94;24.79
84859;BME280;75115;42.984;23.244;2024-03-23T13:26:50;94748.00;;;15.81;25.03
84859;BME280;75115;42.984;23.244;2024-03-23T13:29:16;94747.56;;;15.84;24.91
84859;BME280;75115;42.984;23.244;2024-03-23T13:31:41;94743.19;;;15.78;25.20
84859;BME280;75115;42.984;23.244;2024-03-23T13:34:07;94741.97;;;15.81;24.01
84859;BME280;75115;42.984;23.244;2024-03-23T13:36:32;94741.09;;;15.87;24.88
84859;BME280;75115;42.984;23.244;2024-03-23T13:38:57;94736.66;;;15.87;25.07
84859;BME280;75115;42.984;23.244;2024-03-23T13:41:24;94735.63;;;15.88;25.39
84859;BME280;75115;42.984;23.244;2024-03-23T13:43:49;94729.78;;;15.93;25.87
84859;BME280;75115;42.984;23.244;2024-03-23T13:46:14;94726.00;;;15.89;24.63
84859;BME280;75115;42.984;23.244;2024-03-23T13:48:40;94727.97;;;15.93;25.51
84859;BME280;75115;42.984;23.244;2024-03-23T13:51:07;94716.38;;;16.01;24.77
84859;BME280;75115;42.984;23.244;2024-03-23T13:53:32;94718.31;;;15.94;25.75
84859;BME280;75115;42.984;23.244;2024-03-23T13:55:58;94713.72;;;15.89;24.70